sensor_id;sensor_type;location;lat;lon;timestamp;P1;durP1;ratioP1;P2;durP2;ratioP2
9948;SDS011;5013;51.840;8.276;2023-04-15T00:01:08;10.87;;;7.87;;
9948;SDS011;5013;51.840;8.276;2023-04-15T00:03:34;9.43;;;7.83;;
9948;SDS011;5013;51.840;8.276;2023-04-15T00:05:59;10.83;;;7.70;;
9948;SDS011;5013;51.840;8.276;2023-04-15T00:08:25;8.80;;;7.90;;
9948;SDS011;5013;51.840;8.276;2023-04-15T00:10:51;10.50;;;7.23;;
9948;SDS011;5013;51.840;8.276;2023-04-15T00:13:17;10.90;;;8.67;;
9948;SDS011;5013;51.840;8.276;2023-04-15T00:15:42;8.23;;;7.43;;
9948;SDS011;5013;51.840;8.276;2023-04-15T00:18:08;11.53;;;7.77;;
9948;SDS011;5013;51.840;8.276;2023-04-15T00:20:34;11.10;;;8.40;;
9948;SDS011;5013;51.840;8.276;2023-04-15T00:23:01;14.83;;;8.10;;
9948;SDS011;5013;51.840;8.276;2023-04-15T00:25:27;8.93;;;8.10;;
9948;SDS011;5013;51.840;8.276;2023-04-15T00:27:53;9.10;;;8.10;;
9948;SDS011;5013;51.840;8.276;2023-04-15T00:30:19;8.30;;;7.50;;
9948;SDS011;5013;51.840;8.276;2023-04-15T00:32:45;11.53;;;7.63;;
9948;SDS011;5013;51.840;8.276;2023-04-15T00:35:10;11.97;;;8.57;;
9948;SDS011;5013;51.840;8.276;2023-04-15T00:37:36;9.53;;;7.97;;
9948;SDS011;5013;51.840;8.276;2023-04-15T00:40:02;9.10;;;7.93;;
9948;SDS011;5013;51.840;8.276;2023-04-15T00:42:30;9.53;;;8.10;;
9948;SDS011;5013;51.840;8.276;2023-04-15T00:44:56;9.23;;;8.47;;
9948;SDS011;5013;51.840;8.276;2023-04-15T00:47:21;8.80;;;7.90;;
9948;SDS011;5013;51.840;8.276;2023-04-15T00:49:47;10.47;;;8.00;;
9948;SDS011;5013;51.840;8.276;2023-04-15T00:52:12;8.60;;;7.83;;
9948;SDS011;5013;51.840;8.276;2023-04-15T00:54:38;8.97;;;8.07;;
9948;SDS011;5013;51.840;8.276;2023-04-15T00:57:05;8.53;;;7.73;;
9948;SDS011;5013;51.840;8.276;2023-04-15T00:59:32;8.03;;;7.27;;
9948;SDS011;5013;51.840;8.276;2023-04-15T01:01:57;8.90;;;8.00;;
9948;SDS011;5013;51.840;8.276;2023-04-15T01:04:23;8.03;;;7.33;;
9948;SDS011;5013;51.840;8.276;2023-04-15T01:06:49;9.10;;;7.60;;
9948;SDS011;5013;51.840;8.276;2023-04-15T01:09:15;8.67;;;7.87;;
9948;SDS011;5013;51.840;8.276;2023-04-15T01:11:41;11.07;;;8.50;;
9948;SDS011;5013;51.840;8.276;2023-04-15T01:14:07;9.30;;;8.20;;
9948;SDS011;5013;51.840;8.276;2023-04-15T01:16:35;8.87;;;7.97;;
9948;SDS011;5013;51.840;8.276;2023-04-15T01:19:04;10.97;;;8.67;;
9948;SDS011;5013;51.840;8.276;2023-04-15T01:21:33;8.70;;;7.90;;
9948;SDS011;5013;51.840;8.276;2023-04-15T01:24:02;8.63;;;7.90;;
9948;SDS011;5013;51.840;8.276;2023-04-15T01:26:33;9.13;;;8.33;;
9948;SDS011;5013;51.840;8.276;2023-04-15T01:29:00;9.47;;;8.30;;
9948;SDS011;5013;51.840;8.276;2023-04-15T01:31:25;10.43;;;7.60;;
9948;SDS011;5013;51.840;8.276;2023-04-15T01:33:51;8.77;;;7.87;;
9948;SDS011;5013;51.840;8.276;2023-04-15T01:36:17;8.70;;;7.90;;
9948;SDS011;5013;51.840;8.276;2023-04-15T01:38:42;10.93;;;7.97;;
9948;SDS011;5013;51.840;8.276;2023-04-15T01:41:08;9.50;;;7.70;;
9948;SDS011;5013;51.840;8.276;2023-04-15T01:43:34;8.37;;;7.70;;
9948;SDS011;5013;51.840;8.276;2023-04-15T01:46:02;7.57;;;6.87;;
9948;SDS011;5013;51.840;8.276;2023-04-15T01:48:28;8.27;;;7.27;;
9948;SDS011;5013;51.840;8.276;2023-04-15T01:50:53;7.63;;;6.93;;
9948;SDS011;5013;51.840;8.276;2023-04-15T01:53:22;8.67;;;7.80;;
9948;SDS011;5013;51.840;8.276;2023-04-15T01:55:48;8.70;;;7.83;;
9948;SDS011;5013;51.840;8.276;2023-04-15T01:58:14;9.47;;;7.77;;
9948;SDS011;5013;51.840;8.276;2023-04-15T02:00:39;7.77;;;7.17;;
9948;SDS011;5013;51.840;8.276;2023-04-15T02:03:05;7.97;;;7.17;;
9948;SDS011;5013;51.840;8.276;2023-04-15T02:05:31;7.17;;;6.60;;
9948;SDS011;5013;51.840;8.276;2023-04-15T02:07:57;8.00;;;7.30;;
9948;SDS011;5013;51.840;8.276;2023-04-15T02:10:23;10.30;;;7.43;;
9948;SDS011;5013;51.840;8.276;2023-04-15T02:12:49;12.43;;;7.13;;
9948;SDS011;5013;51.840;8.276;2023-04-15T02:15:14;7.73;;;7.07;;
9948;SDS011;5013;51.840;8.276;2023-04-15T02:17:40;7.50;;;6.83;;
9948;SDS011;5013;51.840;8.276;2023-04-15T02:20:09;7.83;;;7.03;;
9948;SDS011;5013;51.840;8.276;2023-04-15T02:22:35;8.50;;;7.50;;
9948;SDS011;5013;51.840;8.276;2023-04-15T02:25:01;7.33;;;6.70;;
9948;SDS011;5013;51.840;8.276;2023-04-15T02:27:27;8.43;;;7.63;;
9948;SDS011;5013;51.840;8.276;2023-04-15T02:29:53;7.70;;;6.90;;
9948;SDS011;5013;51.840;8.276;2023-04-15T02:32:18;9.27;;;7.87;;
9948;SDS011;5013;51.840;8.276;2023-04-15T02:34:45;8.33;;;7.40;;
9948;SDS011;5013;51.840;8.276;2023-04-15T02:37:12;8.17;;;7.37;;
9948;SDS011;5013;51.840;8.276;2023-04-15T02:39:38;9.07;;;7.97;;
9948;SDS011;5013;51.840;8.276;2023-04-15T02:42:03;9.37;;;8.33;;
9948;SDS011;5013;51.840;8.276;2023-04-15T02:44:30;9.17;;;8.27;;
9948;SDS011;5013;51.840;8.276;2023-04-15T02:46:56;8.67;;;7.97;;
9948;SDS011;5013;51.840;8.276;2023-04-15T02:49:23;9.73;;;8.73;;
9948;SDS011;5013;51.840;8.276;2023-04-15T02:51:49;9.73;;;8.73;;
9948;SDS011;5013;51.840;8.276;2023-04-15T02:54:16;11.90;;;9.20;;
9948;SDS011;5013;51.840;8.276;2023-04-15T02:56:42;10.40;;;9.50;;
9948;SDS011;5013;51.840;8.276;2023-04-15T02:59:07;9.73;;;8.67;;
9948;SDS011;5013;51.840;8.276;2023-04-15T03:01:33;9.53;;;8.63;;
9948;SDS011;5013;51.840;8.276;2023-04-15T03:03:58;9.60;;;8.70;;
9948;SDS011;5013;51.840;8.276;2023-04-15T03:06:24;10.17;;;9.30;;
9948;SDS011;5013;51.840;8.276;2023-04-15T03:08:50;11.43;;;9.20;;
9948;SDS011;5013;51.840;8.276;2023-04-15T03:11:15;11.47;;;10.03;;
9948;SDS011;5013;51.840;8.276;2023-04-15T03:13:41;13.37;;;12.00;;
9948;SDS011;5013;51.840;8.276;2023-04-15T03:16:07;12.40;;;11.13;;
9948;SDS011;5013;51.840;8.276;2023-04-15T03:18:33;11.70;;;10.40;;
9948;SDS011;5013;51.840;8.276;2023-04-15T03:20:59;10.77;;;9.73;;
9948;SDS011;5013;51.840;8.276;2023-04-15T03:23:26;10.30;;;9.40;;
9948;SDS011;5013;51.840;8.276;2023-04-15T03:25:51;12.37;;;11.17;;
9948;SDS011;5013;51.840;8.276;2023-04-15T03:28:19;12.53;;;11.10;;
9948;SDS011;5013;51.840;8.276;2023-04-15T03:30:45;15.80;;;11.90;;
9948;SDS011;5013;51.840;8.276;2023-04-15T03:33:11;11.37;;;10.40;;
9948;SDS011;5013;51.840;8.276;2023-04-15T03:35:36;13.77;;;11.13;;
9948;SDS011;5013;51.840;8.276;2023-04-15T03:38:02;13.10;;;11.87;;
9948;SDS011;5013;51.840;8.276;2023-04-15T03:40:27;14.27;;;11.97;;
9948;SDS011;5013;51.840;8.276;2023-04-15T03:42:53;12.70;;;11.40;;
9948;SDS011;5013;51.840;8.276;2023-04-15T03:45:19;12.87;;;11.53;;
9948;SDS011;5013;51.840;8.276;2023-04-15T03:47:44;11.37;;;10.37;;
9948;SDS011;5013;51.840;8.276;2023-04-15T03:50:10;12.00;;;10.80;;
9948;SDS011;5013;51.840;8.276;2023-04-15T03:52:36;12.73;;;11.13;;
9948;SDS011;5013;51.840;8.276;2023-04-15T03:55:02;12.30;;;11.10;;
9948;SDS011;5013;51.840;8.276;2023-04-15T03:57:27;12.37;;;11.07;;
9948;SDS011;5013;51.840;8.276;2023-04-15T03:59:53;12.70;;;11.50;;
9948;SDS011;5013;51.840;8.276;2023-04-15T04:02:18;13.40;;;11.87;;
9948;SDS011;5013;51.840;8.276;2023-04-15T04:04:44;15.27;;;12.60;;
9948;SDS011;5013;51.840;8.276;2023-04-15T04:07:16;16.63;;;14.93;;
9948;SDS011;5013;51.840;8.276;2023-04-15T04:09:42;15.20;;;13.40;;
9948;SDS011;5013;51.840;8.276;2023-04-15T04:12:08;16.47;;;14.20;;
9948;SDS011;5013;51.840;8.276;2023-04-15T04:14:33;15.70;;;14.13;;
9948;SDS011;5013;51.840;8.276;2023-04-15T04:16:59;14.13;;;12.73;;
9948;SDS011;5013;51.840;8.276;2023-04-15T04:19:25;17.00;;;12.97;;
9948;SDS011;5013;51.840;8.276;2023-04-15T04:21:51;15.20;;;13.33;;
9948;SDS011;5013;51.840;8.276;2023-04-15T04:24:16;15.43;;;13.83;;
9948;SDS011;5013;51.840;8.276;2023-04-15T04:26:42;18.43;;;14.20;;
9948;SDS011;5013;51.840;8.276;2023-04-15T04:29:07;15.63;;;13.63;;
9948;SDS011;5013;51.840;8.276;2023-04-15T04:31:33;14.20;;;12.83;;
9948;SDS011;5013;51.840;8.276;2023-04-15T04:33:59;13.40;;;12.20;;
9948;SDS011;5013;51.840;8.276;2023-04-15T04:36:24;16.23;;;14.53;;
9948;SDS011;5013;51.840;8.276;2023-04-15T04:38:50;15.23;;;13.60;;
9948;SDS011;5013;51.840;8.276;2023-04-15T04:41:16;16.03;;;14.40;;
9948;SDS011;5013;51.840;8.276;2023-04-15T04:43:42;17.07;;;15.37;;
9948;SDS011;5013;51.840;8.276;2023-04-15T04:46:07;17.93;;;15.60;;
9948;SDS011;5013;51.840;8.276;2023-04-15T04:48:34;18.13;;;16.33;;
9948;SDS011;5013;51.840;8.276;2023-04-15T04:50:59;18.10;;;14.93;;
9948;SDS011;5013;51.840;8.276;2023-04-15T04:53:26;17.20;;;14.93;;
9948;SDS011;5013;51.840;8.276;2023-04-15T04:55:52;17.03;;;15.27;;
9948;SDS011;5013;51.840;8.276;2023-04-15T04:58:17;16.87;;;15.07;;
9948;SDS011;5013;51.840;8.276;2023-04-15T05:00:43;17.53;;;15.70;;
9948;SDS011;5013;51.840;8.276;2023-04-15T05:03:08;18.03;;;16.13;;
9948;SDS011;5013;51.840;8.276;2023-04-15T05:05:34;21.03;;;16.60;;
9948;SDS011;5013;51.840;8.276;2023-04-15T05:08:01;17.90;;;16.00;;
9948;SDS011;5013;51.840;8.276;2023-04-15T05:10:26;17.63;;;15.70;;
9948;SDS011;5013;51.840;8.276;2023-04-15T05:12:52;18.23;;;16.33;;
9948;SDS011;5013;51.840;8.276;2023-04-15T05:15:17;17.77;;;15.67;;
9948;SDS011;5013;51.840;8.276;2023-04-15T05:17:43;17.60;;;15.80;;
9948;SDS011;5013;51.840;8.276;2023-04-15T05:20:09;19.43;;;16.27;;
9948;SDS011;5013;51.840;8.276;2023-04-15T05:22:35;21.63;;;16.70;;
9948;SDS011;5013;51.840;8.276;2023-04-15T05:25:01;17.03;;;15.20;;
9948;SDS011;5013;51.840;8.276;2023-04-15T05:27:27;17.23;;;15.30;;
9948;SDS011;5013;51.840;8.276;2023-04-15T05:29:52;19.63;;;16.17;;
9948;SDS011;5013;51.840;8.276;2023-04-15T05:32:18;20.00;;;16.23;;
9948;SDS011;5013;51.840;8.276;2023-04-15T05:34:44;17.43;;;15.53;;
9948;SDS011;5013;51.840;8.276;2023-04-15T05:37:09;18.87;;;16.97;;
9948;SDS011;5013;51.840;8.276;2023-04-15T05:39:35;20.07;;;17.23;;
9948;SDS011;5013;51.840;8.276;2023-04-15T05:42:00;17.63;;;15.83;;
9948;SDS011;5013;51.840;8.276;2023-04-15T05:44:26;16.97;;;14.50;;
9948;SDS011;5013;51.840;8.276;2023-04-15T05:46:51;17.07;;;15.23;;
9948;SDS011;5013;51.840;8.276;2023-04-15T05:49:17;20.70;;;17.77;;
9948;SDS011;5013;51.840;8.276;2023-04-15T05:51:43;20.77;;;16.40;;
9948;SDS011;5013;51.840;8.276;2023-04-15T05:54:08;18.20;;;15.77;;
9948;SDS011;5013;51.840;8.276;2023-04-15T05:56:34;18.40;;;16.40;;
9948;SDS011;5013;51.840;8.276;2023-04-15T05:58:59;17.60;;;15.80;;
9948;SDS011;5013;51.840;8.276;2023-04-15T06:01:25;18.83;;;16.17;;
9948;SDS011;5013;51.840;8.276;2023-04-15T06:03:51;19.83;;;17.73;;
9948;SDS011;5013;51.840;8.276;2023-04-15T06:06:17;20.10;;;18.00;;
9948;SDS011;5013;51.840;8.276;2023-04-15T06:08:42;21.43;;;17.80;;
9948;SDS011;5013;51.840;8.276;2023-04-15T06:11:08;18.90;;;16.60;;
9948;SDS011;5013;51.840;8.276;2023-04-15T06:13:33;21.53;;;16.30;;
9948;SDS011;5013;51.840;8.276;2023-04-15T06:15:59;16.87;;;15.17;;
9948;SDS011;5013;51.840;8.276;2023-04-15T06:18:25;20.60;;;16.17;;
9948;SDS011;5013;51.840;8.276;2023-04-15T06:20:50;18.87;;;16.83;;
9948;SDS011;5013;51.840;8.276;2023-04-15T06:23:16;17.37;;;15.60;;
9948;SDS011;5013;51.840;8.276;2023-04-15T06:25:41;19.20;;;17.20;;
9948;SDS011;5013;51.840;8.276;2023-04-15T06:28:07;18.10;;;16.13;;
9948;SDS011;5013;51.840;8.276;2023-04-15T06:30:33;19.23;;;17.30;;
9948;SDS011;5013;51.840;8.276;2023-04-15T06:32:59;21.77;;;16.30;;
9948;SDS011;5013;51.840;8.276;2023-04-15T06:35:27;25.07;;;19.43;;
9948;SDS011;5013;51.840;8.276;2023-04-15T06:37:52;21.30;;;18.27;;
9948;SDS011;5013;51.840;8.276;2023-04-15T06:40:18;19.40;;;16.70;;
9948;SDS011;5013;51.840;8.276;2023-04-15T06:42:43;21.87;;;18.73;;
9948;SDS011;5013;51.840;8.276;2023-04-15T06:45:09;19.27;;;16.47;;
9948;SDS011;5013;51.840;8.276;2023-04-15T06:47:35;18.27;;;16.30;;
9948;SDS011;5013;51.840;8.276;2023-04-15T06:50:01;21.17;;;18.87;;
9948;SDS011;5013;51.840;8.276;2023-04-15T06:52:27;23.23;;;19.27;;
9948;SDS011;5013;51.840;8.276;2023-04-15T06:54:53;20.83;;;17.77;;
9948;SDS011;5013;51.840;8.276;2023-04-15T06:57:19;22.63;;;18.20;;
9948;SDS011;5013;51.840;8.276;2023-04-15T06:59:44;23.30;;;18.53;;
9948;SDS011;5013;51.840;8.276;2023-04-15T07:02:11;22.50;;;19.63;;
9948;SDS011;5013;51.840;8.276;2023-04-15T07:04:38;21.77;;;18.53;;
9948;SDS011;5013;51.840;8.276;2023-04-15T07:07:04;20.43;;;18.23;;
9948;SDS011;5013;51.840;8.276;2023-04-15T07:09:30;20.33;;;17.70;;
9948;SDS011;5013;51.840;8.276;2023-04-15T07:11:56;21.10;;;18.67;;
9948;SDS011;5013;51.840;8.276;2023-04-15T07:14:22;26.30;;;20.73;;
9948;SDS011;5013;51.840;8.276;2023-04-15T07:16:47;22.10;;;19.50;;
9948;SDS011;5013;51.840;8.276;2023-04-15T07:19:13;23.13;;;18.50;;
9948;SDS011;5013;51.840;8.276;2023-04-15T07:21:38;21.60;;;17.30;;
9948;SDS011;5013;51.840;8.276;2023-04-15T07:24:04;26.80;;;19.57;;
9948;SDS011;5013;51.840;8.276;2023-04-15T07:26:30;20.37;;;17.83;;
9948;SDS011;5013;51.840;8.276;2023-04-15T07:28:56;21.87;;;18.90;;
9948;SDS011;5013;51.840;8.276;2023-04-15T07:31:21;25.80;;;19.40;;
9948;SDS011;5013;51.840;8.276;2023-04-15T07:33:47;20.33;;;18.20;;
9948;SDS011;5013;51.840;8.276;2023-04-15T07:36:12;25.80;;;20.43;;
9948;SDS011;5013;51.840;8.276;2023-04-15T07:38:39;27.10;;;21.70;;
9948;SDS011;5013;51.840;8.276;2023-04-15T07:41:04;27.20;;;22.97;;
9948;SDS011;5013;51.840;8.276;2023-04-15T07:43:30;31.87;;;23.50;;
9948;SDS011;5013;51.840;8.276;2023-04-15T07:45:56;23.93;;;20.67;;
9948;SDS011;5013;51.840;8.276;2023-04-15T07:48:21;19.87;;;17.77;;
9948;SDS011;5013;51.840;8.276;2023-04-15T07:50:47;20.30;;;18.17;;
9948;SDS011;5013;51.840;8.276;2023-04-15T07:53:12;21.13;;;17.93;;
9948;SDS011;5013;51.840;8.276;2023-04-15T07:55:38;22.37;;;18.57;;
9948;SDS011;5013;51.840;8.276;2023-04-15T07:58:04;19.00;;;17.10;;
9948;SDS011;5013;51.840;8.276;2023-04-15T08:00:30;16.73;;;15.13;;
9948;SDS011;5013;51.840;8.276;2023-04-15T08:02:56;16.83;;;15.03;;
9948;SDS011;5013;51.840;8.276;2023-04-15T08:05:23;15.60;;;14.00;;
9948;SDS011;5013;51.840;8.276;2023-04-15T08:07:49;19.97;;;16.43;;
9948;SDS011;5013;51.840;8.276;2023-04-15T08:10:15;18.10;;;16.20;;
9948;SDS011;5013;51.840;8.276;2023-04-15T08:12:41;19.13;;;16.50;;
9948;SDS011;5013;51.840;8.276;2023-04-15T08:15:07;17.93;;;16.00;;
9948;SDS011;5013;51.840;8.276;2023-04-15T08:17:33;20.87;;;18.30;;
9948;SDS011;5013;51.840;8.276;2023-04-15T08:19:59;19.87;;;17.83;;
9948;SDS011;5013;51.840;8.276;2023-04-15T08:22:24;22.40;;;19.07;;
9948;SDS011;5013;51.840;8.276;2023-04-15T08:24:51;22.30;;;19.07;;
9948;SDS011;5013;51.840;8.276;2023-04-15T08:27:17;23.53;;;18.77;;
9948;SDS011;5013;51.840;8.276;2023-04-15T08:29:42;21.57;;;19.30;;
9948;SDS011;5013;51.840;8.276;2023-04-15T08:32:09;24.37;;;19.77;;
9948;SDS011;5013;51.840;8.276;2023-04-15T08:34:35;24.00;;;19.80;;
9948;SDS011;5013;51.840;8.276;2023-04-15T08:37:00;21.77;;;19.47;;
9948;SDS011;5013;51.840;8.276;2023-04-15T08:39:26;20.60;;;18.53;;
9948;SDS011;5013;51.840;8.276;2023-04-15T08:41:55;25.73;;;21.60;;
9948;SDS011;5013;51.840;8.276;2023-04-15T08:44:28;22.57;;;20.17;;
9948;SDS011;5013;51.840;8.276;2023-04-15T08:46:55;27.03;;;20.83;;
9948;SDS011;5013;51.840;8.276;2023-04-15T08:49:25;21.50;;;19.20;;
9948;SDS011;5013;51.840;8.276;2023-04-15T08:51:52;25.27;;;21.23;;
9948;SDS011;5013;51.840;8.276;2023-04-15T08:54:20;28.33;;;23.03;;
9948;SDS011;5013;51.840;8.276;2023-04-15T08:56:46;28.90;;;23.20;;
9948;SDS011;5013;51.840;8.276;2023-04-15T08:59:13;33.97;;;26.60;;
9948;SDS011;5013;51.840;8.276;2023-04-15T09:01:39;31.47;;;24.57;;
9948;SDS011;5013;51.840;8.276;2023-04-15T09:04:05;28.90;;;23.60;;
9948;SDS011;5013;51.840;8.276;2023-04-15T09:06:32;25.73;;;21.53;;
9948;SDS011;5013;51.840;8.276;2023-04-15T09:08:58;28.60;;;22.77;;
9948;SDS011;5013;51.840;8.276;2023-04-15T09:11:23;27.13;;;23.27;;
9948;SDS011;5013;51.840;8.276;2023-04-15T09:13:49;26.57;;;21.10;;
9948;SDS011;5013;51.840;8.276;2023-04-15T09:16:15;27.30;;;22.27;;
9948;SDS011;5013;51.840;8.276;2023-04-15T09:18:41;23.87;;;21.07;;
9948;SDS011;5013;51.840;8.276;2023-04-15T09:21:08;23.63;;;20.03;;
9948;SDS011;5013;51.840;8.276;2023-04-15T09:23:36;25.23;;;21.07;;
9948;SDS011;5013;51.840;8.276;2023-04-15T09:26:03;31.07;;;24.03;;
9948;SDS011;5013;51.840;8.276;2023-04-15T09:28:29;25.67;;;21.63;;
9948;SDS011;5013;51.840;8.276;2023-04-15T09:30:59;27.57;;;21.83;;
9948;SDS011;5013;51.840;8.276;2023-04-15T09:33:27;25.90;;;20.73;;
9948;SDS011;5013;51.840;8.276;2023-04-15T09:36:00;22.33;;;19.13;;
9948;SDS011;5013;51.840;8.276;2023-04-15T09:38:28;23.27;;;18.97;;
9948;SDS011;5013;51.840;8.276;2023-04-15T09:40:55;26.67;;;20.70;;
9948;SDS011;5013;51.840;8.276;2023-04-15T09:43:21;24.00;;;20.33;;
9948;SDS011;5013;51.840;8.276;2023-04-15T09:45:50;22.17;;;18.40;;
9948;SDS011;5013;51.840;8.276;2023-04-15T09:48:24;25.50;;;20.40;;
9948;SDS011;5013;51.840;8.276;2023-04-15T09:50:56;20.87;;;17.10;;
9948;SDS011;5013;51.840;8.276;2023-04-15T09:53:23;23.20;;;18.70;;
9948;SDS011;5013;51.840;8.276;2023-04-15T09:58:23;17.57;;;15.70;;
9948;SDS011;5013;51.840;8.276;2023-04-15T10:00:51;17.13;;;15.33;;
9948;SDS011;5013;51.840;8.276;2023-04-15T10:03:27;15.90;;;14.00;;
9948;SDS011;5013;51.840;8.276;2023-04-15T10:05:55;14.43;;;12.93;;
9948;SDS011;5013;51.840;8.276;2023-04-15T10:08:23;13.70;;;12.30;;
9948;SDS011;5013;51.840;8.276;2023-04-15T10:10:51;14.17;;;12.63;;
9948;SDS011;5013;51.840;8.276;2023-04-15T10:13:18;13.50;;;12.07;;
9948;SDS011;5013;51.840;8.276;2023-04-15T10:15:56;12.43;;;11.13;;
9948;SDS011;5013;51.840;8.276;2023-04-15T10:18:29;13.03;;;11.67;;
9948;SDS011;5013;51.840;8.276;2023-04-15T10:20:59;11.97;;;10.77;;
9948;SDS011;5013;51.840;8.276;2023-04-15T10:23:25;10.17;;;9.27;;
9948;SDS011;5013;51.840;8.276;2023-04-15T10:25:52;11.23;;;10.07;;
9948;SDS011;5013;51.840;8.276;2023-04-15T10:28:19;12.27;;;10.60;;
9948;SDS011;5013;51.840;8.276;2023-04-15T10:30:47;10.67;;;9.67;;
9948;SDS011;5013;51.840;8.276;2023-04-15T10:33:14;10.70;;;9.73;;
9948;SDS011;5013;51.840;8.276;2023-04-15T10:35:45;9.33;;;8.47;;
9948;SDS011;5013;51.840;8.276;2023-04-15T10:41:23;8.80;;;8.10;;
9948;SDS011;5013;51.840;8.276;2023-04-15T10:44:00;9.10;;;8.23;;
9948;SDS011;5013;51.840;8.276;2023-04-15T10:46:37;8.47;;;7.67;;
9948;SDS011;5013;51.840;8.276;2023-04-15T10:49:13;8.37;;;7.60;;
9948;SDS011;5013;51.840;8.276;2023-04-15T10:51:41;7.60;;;7.00;;
9948;SDS011;5013;51.840;8.276;2023-04-15T10:54:30;8.27;;;7.67;;
9948;SDS011;5013;51.840;8.276;2023-04-15T10:59:29;8.07;;;7.37;;
9948;SDS011;5013;51.840;8.276;2023-04-15T11:01:56;7.30;;;6.70;;
9948;SDS011;5013;51.840;8.276;2023-04-15T11:07:31;8.53;;;7.83;;
9948;SDS011;5013;51.840;8.276;2023-04-15T11:12:38;8.03;;;7.30;;
9948;SDS011;5013;51.840;8.276;2023-04-15T11:18:19;8.77;;;7.97;;
9948;SDS011;5013;51.840;8.276;2023-04-15T11:20:44;7.73;;;7.10;;
9948;SDS011;5013;51.840;8.276;2023-04-15T11:23:19;8.83;;;8.03;;
9948;SDS011;5013;51.840;8.276;2023-04-15T11:25:59;8.60;;;7.90;;
9948;SDS011;5013;51.840;8.276;2023-04-15T11:28:26;7.17;;;6.67;;
9948;SDS011;5013;51.840;8.276;2023-04-15T11:30:53;8.27;;;7.47;;
9948;SDS011;5013;51.840;8.276;2023-04-15T11:33:19;7.83;;;7.13;;
9948;SDS011;5013;51.840;8.276;2023-04-15T11:35:46;7.20;;;6.60;;
9948;SDS011;5013;51.840;8.276;2023-04-15T11:38:13;7.97;;;7.27;;
9948;SDS011;5013;51.840;8.276;2023-04-15T11:40:39;8.10;;;7.30;;
9948;SDS011;5013;51.840;8.276;2023-04-15T11:43:06;8.73;;;7.87;;
9948;SDS011;5013;51.840;8.276;2023-04-15T11:45:57;8.20;;;7.53;;
9948;SDS011;5013;51.840;8.276;2023-04-15T11:48:28;9.23;;;8.43;;
9948;SDS011;5013;51.840;8.276;2023-04-15T11:51:01;9.90;;;8.47;;
9948;SDS011;5013;51.840;8.276;2023-04-15T11:54:02;8.17;;;7.47;;
9948;SDS011;5013;51.840;8.276;2023-04-15T11:56:24;8.87;;;7.97;;
9948;SDS011;5013;51.840;8.276;2023-04-15T11:58:51;9.67;;;8.67;;
9948;SDS011;5013;51.840;8.276;2023-04-15T12:01:18;8.87;;;8.00;;
9948;SDS011;5013;51.840;8.276;2023-04-15T12:03:44;8.40;;;7.70;;
9948;SDS011;5013;51.840;8.276;2023-04-15T12:06:23;9.00;;;8.20;;
9948;SDS011;5013;51.840;8.276;2023-04-15T12:08:55;7.77;;;7.20;;
9948;SDS011;5013;51.840;8.276;2023-04-15T12:13:52;9.97;;;8.50;;
9948;SDS011;5013;51.840;8.276;2023-04-15T12:16:19;11.00;;;10.00;;
9948;SDS011;5013;51.840;8.276;2023-04-15T12:18:46;12.10;;;10.97;;
9948;SDS011;5013;51.840;8.276;2023-04-15T12:21:17;10.10;;;9.30;;
9948;SDS011;5013;51.840;8.276;2023-04-15T12:26:14;11.97;;;10.97;;
9948;SDS011;5013;51.840;8.276;2023-04-15T12:28:41;13.17;;;11.87;;
9948;SDS011;5013;51.840;8.276;2023-04-15T12:31:07;11.33;;;10.40;;
9948;SDS011;5013;51.840;8.276;2023-04-15T12:33:34;12.63;;;11.33;;
9948;SDS011;5013;51.840;8.276;2023-04-15T12:36:00;15.17;;;13.77;;
9948;SDS011;5013;51.840;8.276;2023-04-15T12:38:26;12.70;;;11.50;;
9948;SDS011;5013;51.840;8.276;2023-04-15T12:40:52;12.30;;;11.10;;
9948;SDS011;5013;51.840;8.276;2023-04-15T12:43:17;11.73;;;10.67;;
9948;SDS011;5013;51.840;8.276;2023-04-15T12:45:43;11.83;;;10.87;;
9948;SDS011;5013;51.840;8.276;2023-04-15T12:48:09;10.97;;;9.97;;
9948;SDS011;5013;51.840;8.276;2023-04-15T12:50:34;11.00;;;10.00;;
9948;SDS011;5013;51.840;8.276;2023-04-15T12:53:00;10.30;;;9.40;;
9948;SDS011;5013;51.840;8.276;2023-04-15T12:55:26;9.20;;;8.50;;
9948;SDS011;5013;51.840;8.276;2023-04-15T12:57:52;12.03;;;11.03;;
9948;SDS011;5013;51.840;8.276;2023-04-15T13:00:18;10.27;;;9.47;;
9948;SDS011;5013;51.840;8.276;2023-04-15T13:02:43;9.23;;;8.53;;
9948;SDS011;5013;51.840;8.276;2023-04-15T13:05:09;10.20;;;9.30;;
9948;SDS011;5013;51.840;8.276;2023-04-15T13:07:35;9.20;;;8.50;;
9948;SDS011;5013;51.840;8.276;2023-04-15T13:10:00;10.07;;;9.17;;
9948;SDS011;5013;51.840;8.276;2023-04-15T13:12:26;9.60;;;8.77;;
9948;SDS011;5013;51.840;8.276;2023-04-15T13:14:51;8.90;;;8.10;;
9948;SDS011;5013;51.840;8.276;2023-04-15T13:17:17;8.93;;;8.00;;
9948;SDS011;5013;51.840;8.276;2023-04-15T13:19:45;10.00;;;9.10;;
9948;SDS011;5013;51.840;8.276;2023-04-15T13:22:11;8.97;;;8.07;;
9948;SDS011;5013;51.840;8.276;2023-04-15T13:24:37;8.50;;;7.80;;
9948;SDS011;5013;51.840;8.276;2023-04-15T13:27:03;7.07;;;6.47;;
9948;SDS011;5013;51.840;8.276;2023-04-15T13:29:29;14.80;;;12.47;;
9948;SDS011;5013;51.840;8.276;2023-04-15T13:31:54;8.10;;;7.47;;
9948;SDS011;5013;51.840;8.276;2023-04-15T13:34:20;7.83;;;7.30;;
9948;SDS011;5013;51.840;8.276;2023-04-15T13:36:46;8.10;;;7.33;;
9948;SDS011;5013;51.840;8.276;2023-04-15T13:39:11;7.23;;;6.63;;
9948;SDS011;5013;51.840;8.276;2023-04-15T13:41:37;7.27;;;6.57;;
9948;SDS011;5013;51.840;8.276;2023-04-15T13:44:04;7.60;;;7.00;;
9948;SDS011;5013;51.840;8.276;2023-04-15T13:46:30;7.30;;;6.77;;
9948;SDS011;5013;51.840;8.276;2023-04-15T13:48:55;7.27;;;6.67;;
9948;SDS011;5013;51.840;8.276;2023-04-15T13:51:21;7.10;;;6.50;;
9948;SDS011;5013;51.840;8.276;2023-04-15T13:53:46;7.23;;;6.73;;
9948;SDS011;5013;51.840;8.276;2023-04-15T13:56:12;7.97;;;7.37;;
9948;SDS011;5013;51.840;8.276;2023-04-15T13:58:39;7.50;;;6.93;;
9948;SDS011;5013;51.840;8.276;2023-04-15T14:01:05;7.47;;;6.97;;
9948;SDS011;5013;51.840;8.276;2023-04-15T14:03:30;6.70;;;6.20;;
9948;SDS011;5013;51.840;8.276;2023-04-15T14:05:56;6.50;;;6.10;;
9948;SDS011;5013;51.840;8.276;2023-04-15T14:08:23;7.20;;;6.70;;
9948;SDS011;5013;51.840;8.276;2023-04-15T14:10:49;7.23;;;6.37;;
9948;SDS011;5013;51.840;8.276;2023-04-15T14:13:15;9.10;;;8.40;;
9948;SDS011;5013;51.840;8.276;2023-04-15T14:15:40;8.03;;;7.33;;
9948;SDS011;5013;51.840;8.276;2023-04-15T14:18:06;8.37;;;7.67;;
9948;SDS011;5013;51.840;8.276;2023-04-15T14:20:32;8.37;;;6.40;;
9948;SDS011;5013;51.840;8.276;2023-04-15T14:22:57;7.23;;;6.73;;
9948;SDS011;5013;51.840;8.276;2023-04-15T14:25:23;8.83;;;8.13;;
9948;SDS011;5013;51.840;8.276;2023-04-15T14:27:49;8.43;;;7.83;;
9948;SDS011;5013;51.840;8.276;2023-04-15T14:30:14;6.77;;;6.27;;
9948;SDS011;5013;51.840;8.276;2023-04-15T14:32:40;7.83;;;7.03;;
9948;SDS011;5013;51.840;8.276;2023-04-15T14:35:05;7.60;;;6.90;;
9948;SDS011;5013;51.840;8.276;2023-04-15T14:37:31;8.43;;;7.77;;
9948;SDS011;5013;51.840;8.276;2023-04-15T14:39:57;7.50;;;7.00;;
9948;SDS011;5013;51.840;8.276;2023-04-15T14:42:22;7.33;;;6.83;;
9948;SDS011;5013;51.840;8.276;2023-04-15T14:44:48;11.63;;;10.43;;
9948;SDS011;5013;51.840;8.276;2023-04-15T14:47:14;12.90;;;10.37;;
9948;SDS011;5013;51.840;8.276;2023-04-15T14:49:40;10.07;;;9.20;;
9948;SDS011;5013;51.840;8.276;2023-04-15T14:52:05;8.10;;;7.40;;
9948;SDS011;5013;51.840;8.276;2023-04-15T14:54:31;8.57;;;7.80;;
9948;SDS011;5013;51.840;8.276;2023-04-15T14:56:57;8.40;;;7.80;;
9948;SDS011;5013;51.840;8.276;2023-04-15T14:59:22;10.97;;;9.87;;
9948;SDS011;5013;51.840;8.276;2023-04-15T15:01:48;10.77;;;9.77;;
9948;SDS011;5013;51.840;8.276;2023-04-15T15:04:13;10.47;;;9.47;;
9948;SDS011;5013;51.840;8.276;2023-04-15T15:06:40;10.37;;;9.20;;
9948;SDS011;5013;51.840;8.276;2023-04-15T15:09:05;11.13;;;10.00;;
9948;SDS011;5013;51.840;8.276;2023-04-15T15:11:31;11.83;;;10.60;;
9948;SDS011;5013;51.840;8.276;2023-04-15T15:13:57;10.67;;;9.67;;
9948;SDS011;5013;51.840;8.276;2023-04-15T15:16:23;12.37;;;11.27;;